sensor_id;sensor_type;location;lat;lon;timestamp;P1;durP1;ratioP1;P2;durP2;ratioP2
34236;SDS011;20501;45.956;13.632;2023-03-23T00:01:02;23.38;;;13.43;;
34236;SDS011;20501;45.956;13.632;2023-03-23T00:05:56;23.48;;;14.43;;
34236;SDS011;20501;45.956;13.632;2023-03-23T00:08:34;20.48;;;14.52;;
34236;SDS011;20501;45.956;13.632;2023-03-23T00:11:10;22.75;;;12.90;;
34236;SDS011;20501;45.956;13.632;2023-03-23T00:13:40;23.50;;;13.18;;
34236;SDS011;20501;45.956;13.632;2023-03-23T00:16:11;19.90;;;12.35;;
34236;SDS011;20501;45.956;13.632;2023-03-23T00:18:46;19.75;;;13.05;;
34236;SDS011;20501;45.956;13.632;2023-03-23T00:21:13;20.35;;;12.50;;
34236;SDS011;20501;45.956;13.632;2023-03-23T00:23:41;21.23;;;13.57;;
34236;SDS011;20501;45.956;13.632;2023-03-23T00:26:09;22.02;;;14.55;;
34236;SDS011;20501;45.956;13.632;2023-03-23T00:28:35;18.73;;;12.52;;
34236;SDS011;20501;45.956;13.632;2023-03-23T00:31:02;21.17;;;13.45;;
34236;SDS011;20501;45.956;13.632;2023-03-23T00:33:31;17.95;;;11.63;;
34236;SDS011;20501;45.956;13.632;2023-03-23T00:36:03;23.80;;;14.77;;
34236;SDS011;20501;45.956;13.632;2023-03-23T00:38:29;21.02;;;12.32;;
34236;SDS011;20501;45.956;13.632;2023-03-23T00:40:55;25.30;;;16.20;;
34236;SDS011;20501;45.956;13.632;2023-03-23T00:43:22;27.58;;;16.83;;
34236;SDS011;20501;45.956;13.632;2023-03-23T00:45:50;18.45;;;11.88;;
34236;SDS011;20501;45.956;13.632;2023-03-23T00:48:19;18.20;;;12.45;;
34236;SDS011;20501;45.956;13.632;2023-03-23T00:50:45;18.10;;;11.32;;
34236;SDS011;20501;45.956;13.632;2023-03-23T00:53:11;24.25;;;13.73;;
34236;SDS011;20501;45.956;13.632;2023-03-23T00:55:36;27.80;;;15.60;;
34236;SDS011;20501;45.956;13.632;2023-03-23T00:58:02;17.58;;;12.05;;
34236;SDS011;20501;45.956;13.632;2023-03-23T01:00:27;18.25;;;12.80;;
34236;SDS011;20501;45.956;13.632;2023-03-23T01:02:53;20.52;;;12.20;;
34236;SDS011;20501;45.956;13.632;2023-03-23T01:05:19;18.70;;;12.30;;
34236;SDS011;20501;45.956;13.632;2023-03-23T01:07:45;19.10;;;12.40;;
34236;SDS011;20501;45.956;13.632;2023-03-23T01:10:12;20.73;;;12.98;;
34236;SDS011;20501;45.956;13.632;2023-03-23T01:12:41;17.83;;;11.63;;
34236;SDS011;20501;45.956;13.632;2023-03-23T01:15:08;24.92;;;14.15;;
34236;SDS011;20501;45.956;13.632;2023-03-23T01:17:34;17.43;;;12.23;;
34236;SDS011;20501;45.956;13.632;2023-03-23T01:20:00;18.88;;;10.65;;
34236;SDS011;20501;45.956;13.632;2023-03-23T01:22:25;19.55;;;11.73;;
34236;SDS011;20501;45.956;13.632;2023-03-23T01:24:50;16.38;;;10.57;;
34236;SDS011;20501;45.956;13.632;2023-03-23T01:27:16;19.25;;;11.95;;
34236;SDS011;20501;45.956;13.632;2023-03-23T01:29:41;15.60;;;10.77;;
34236;SDS011;20501;45.956;13.632;2023-03-23T01:32:07;16.10;;;10.30;;
34236;SDS011;20501;45.956;13.632;2023-03-23T01:34:32;17.75;;;11.40;;
34236;SDS011;20501;45.956;13.632;2023-03-23T01:36:58;18.67;;;11.57;;
34236;SDS011;20501;45.956;13.632;2023-03-23T01:39:23;18.33;;;12.40;;
34236;SDS011;20501;45.956;13.632;2023-03-23T01:41:49;15.15;;;10.10;;
34236;SDS011;20501;45.956;13.632;2023-03-23T01:46:43;15.15;;;10.23;;
34236;SDS011;20501;45.956;13.632;2023-03-23T01:49:13;15.53;;;10.57;;
34236;SDS011;20501;45.956;13.632;2023-03-23T01:51:43;15.43;;;10.20;;
34236;SDS011;20501;45.956;13.632;2023-03-23T01:54:18;17.55;;;12.02;;
34236;SDS011;20501;45.956;13.632;2023-03-23T01:56:47;13.68;;;10.07;;
34236;SDS011;20501;45.956;13.632;2023-03-23T01:59:19;16.17;;;10.35;;
34236;SDS011;20501;45.956;13.632;2023-03-23T02:01:48;18.75;;;10.95;;
34236;SDS011;20501;45.956;13.632;2023-03-23T02:04:17;15.23;;;10.60;;
34236;SDS011;20501;45.956;13.632;2023-03-23T02:09:10;15.23;;;9.82;;
34236;SDS011;20501;45.956;13.632;2023-03-23T02:11:38;14.55;;;9.27;;
34236;SDS011;20501;45.956;13.632;2023-03-23T02:14:04;14.70;;;10.32;;
34236;SDS011;20501;45.956;13.632;2023-03-23T02:16:34;13.70;;;9.52;;
34236;SDS011;20501;45.956;13.632;2023-03-23T02:19:12;18.85;;;12.88;;
34236;SDS011;20501;45.956;13.632;2023-03-23T02:27:41;13.85;;;9.15;;
34236;SDS011;20501;45.956;13.632;2023-03-23T02:38:31;14.80;;;9.82;;
34236;SDS011;20501;45.956;13.632;2023-03-23T02:41:03;18.17;;;11.20;;
34236;SDS011;20501;45.956;13.632;2023-03-23T02:43:33;20.80;;;10.35;;
34236;SDS011;20501;45.956;13.632;2023-03-23T02:46:05;20.63;;;12.63;;
34236;SDS011;20501;45.956;13.632;2023-03-23T02:48:34;13.00;;;9.73;;
34236;SDS011;20501;45.956;13.632;2023-03-23T02:51:03;14.77;;;9.73;;
34236;SDS011;20501;45.956;13.632;2023-03-23T02:53:29;22.17;;;13.32;;
34236;SDS011;20501;45.956;13.632;2023-03-23T02:55:58;19.02;;;11.55;;
34236;SDS011;20501;45.956;13.632;2023-03-23T02:58:26;16.88;;;10.25;;
34236;SDS011;20501;45.956;13.632;2023-03-23T03:00:53;15.90;;;10.55;;
34236;SDS011;20501;45.956;13.632;2023-03-23T03:03:22;23.85;;;13.90;;
34236;SDS011;20501;45.956;13.632;2023-03-23T03:08:51;22.98;;;14.45;;
34236;SDS011;20501;45.956;13.632;2023-03-23T03:11:24;15.73;;;9.73;;
34236;SDS011;20501;45.956;13.632;2023-03-23T03:14:00;17.15;;;11.63;;
34236;SDS011;20501;45.956;13.632;2023-03-23T03:19:11;17.63;;;12.65;;
34236;SDS011;20501;45.956;13.632;2023-03-23T03:21:44;19.52;;;12.68;;
34236;SDS011;20501;45.956;13.632;2023-03-23T03:24:12;15.98;;;10.43;;
34236;SDS011;20501;45.956;13.632;2023-03-23T03:26:42;19.50;;;12.50;;
34236;SDS011;20501;45.956;13.632;2023-03-23T03:29:13;15.68;;;9.50;;
34236;SDS011;20501;45.956;13.632;2023-03-23T03:31:42;18.77;;;10.80;;
34236;SDS011;20501;45.956;13.632;2023-03-23T03:34:13;18.40;;;12.07;;
34236;SDS011;20501;45.956;13.632;2023-03-23T03:36:43;25.83;;;13.10;;
34236;SDS011;20501;45.956;13.632;2023-03-23T03:39:10;18.13;;;11.70;;
34236;SDS011;20501;45.956;13.632;2023-03-23T03:41:38;15.35;;;10.82;;
34236;SDS011;20501;45.956;13.632;2023-03-23T03:44:04;18.70;;;11.43;;
34236;SDS011;20501;45.956;13.632;2023-03-23T03:46:31;13.23;;;8.63;;
34236;SDS011;20501;45.956;13.632;2023-03-23T03:48:57;14.20;;;9.52;;
34236;SDS011;20501;45.956;13.632;2023-03-23T03:51:23;12.93;;;8.93;;
34236;SDS011;20501;45.956;13.632;2023-03-23T03:53:50;14.18;;;8.70;;
34236;SDS011;20501;45.956;13.632;2023-03-23T03:56:15;25.83;;;13.70;;
34236;SDS011;20501;45.956;13.632;2023-03-23T03:58:41;20.83;;;12.90;;
34236;SDS011;20501;45.956;13.632;2023-03-23T04:01:07;25.52;;;12.38;;
34236;SDS011;20501;45.956;13.632;2023-03-23T04:03:36;16.05;;;9.85;;
34236;SDS011;20501;45.956;13.632;2023-03-23T04:06:02;17.30;;;11.55;;
34236;SDS011;20501;45.956;13.632;2023-03-23T04:08:28;20.42;;;12.35;;
34236;SDS011;20501;45.956;13.632;2023-03-23T04:10:54;21.20;;;13.52;;
34236;SDS011;20501;45.956;13.632;2023-03-23T04:13:20;14.40;;;10.20;;
34236;SDS011;20501;45.956;13.632;2023-03-23T04:15:46;13.33;;;8.70;;
34236;SDS011;20501;45.956;13.632;2023-03-23T04:18:12;16.10;;;9.82;;
34236;SDS011;20501;45.956;13.632;2023-03-23T04:20:40;17.50;;;12.18;;
34236;SDS011;20501;45.956;13.632;2023-03-23T04:23:12;18.52;;;11.32;;
34236;SDS011;20501;45.956;13.632;2023-03-23T04:25:48;15.32;;;10.35;;
34236;SDS011;20501;45.956;13.632;2023-03-23T04:28:15;17.33;;;11.63;;
34236;SDS011;20501;45.956;13.632;2023-03-23T04:30:43;15.52;;;9.57;;
34236;SDS011;20501;45.956;13.632;2023-03-23T04:33:10;19.75;;;12.32;;
34236;SDS011;20501;45.956;13.632;2023-03-23T04:35:39;19.48;;;12.48;;
34236;SDS011;20501;45.956;13.632;2023-03-23T04:38:10;15.98;;;9.48;;
34236;SDS011;20501;45.956;13.632;2023-03-23T04:40:37;13.07;;;9.30;;
34236;SDS011;20501;45.956;13.632;2023-03-23T04:45:31;23.38;;;12.20;;
34236;SDS011;20501;45.956;13.632;2023-03-23T04:47:57;17.75;;;10.85;;
34236;SDS011;20501;45.956;13.632;2023-03-23T04:50:24;17.42;;;9.65;;
34236;SDS011;20501;45.956;13.632;2023-03-23T04:52:52;23.58;;;13.05;;
34236;SDS011;20501;45.956;13.632;2023-03-23T04:57:44;16.83;;;11.15;;
34236;SDS011;20501;45.956;13.632;2023-03-23T05:00:11;16.90;;;9.82;;
34236;SDS011;20501;45.956;13.632;2023-03-23T05:02:39;25.73;;;15.75;;
34236;SDS011;20501;45.956;13.632;2023-03-23T05:05:05;19.42;;;12.40;;
34236;SDS011;20501;45.956;13.632;2023-03-23T05:07:32;23.48;;;15.60;;
34236;SDS011;20501;45.956;13.632;2023-03-23T05:09:57;18.45;;;10.90;;
34236;SDS011;20501;45.956;13.632;2023-03-23T05:12:22;23.38;;;14.68;;
34236;SDS011;20501;45.956;13.632;2023-03-23T05:14:48;27.38;;;15.45;;
34236;SDS011;20501;45.956;13.632;2023-03-23T05:17:14;19.95;;;11.88;;
34236;SDS011;20501;45.956;13.632;2023-03-23T05:19:42;19.70;;;12.35;;
34236;SDS011;20501;45.956;13.632;2023-03-23T05:22:09;20.38;;;13.43;;
34236;SDS011;20501;45.956;13.632;2023-03-23T05:24:37;22.65;;;13.90;;
34236;SDS011;20501;45.956;13.632;2023-03-23T05:27:03;25.27;;;14.18;;
34236;SDS011;20501;45.956;13.632;2023-03-23T05:29:29;19.80;;;11.73;;
34236;SDS011;20501;45.956;13.632;2023-03-23T05:31:58;22.52;;;12.43;;
34236;SDS011;20501;45.956;13.632;2023-03-23T05:34:27;18.67;;;11.85;;
34236;SDS011;20501;45.956;13.632;2023-03-23T05:36:54;17.88;;;10.30;;
34236;SDS011;20501;45.956;13.632;2023-03-23T05:39:20;12.85;;;8.80;;
34236;SDS011;20501;45.956;13.632;2023-03-23T05:41:46;15.90;;;9.32;;
34236;SDS011;20501;45.956;13.632;2023-03-23T05:44:11;15.25;;;8.98;;
34236;SDS011;20501;45.956;13.632;2023-03-23T05:46:38;14.73;;;9.50;;
34236;SDS011;20501;45.956;13.632;2023-03-23T05:49:04;25.55;;;13.90;;
34236;SDS011;20501;45.956;13.632;2023-03-23T05:51:29;16.90;;;9.75;;
34236;SDS011;20501;45.956;13.632;2023-03-23T05:53:55;22.65;;;13.80;;
34236;SDS011;20501;45.956;13.632;2023-03-23T05:56:21;18.75;;;11.40;;
34236;SDS011;20501;45.956;13.632;2023-03-23T05:58:47;23.38;;;12.70;;
34236;SDS011;20501;45.956;13.632;2023-03-23T06:01:12;18.30;;;10.20;;
34236;SDS011;20501;45.956;13.632;2023-03-23T06:03:39;15.90;;;9.93;;
34236;SDS011;20501;45.956;13.632;2023-03-23T06:06:05;27.83;;;16.17;;
34236;SDS011;20501;45.956;13.632;2023-03-23T06:08:30;25.73;;;15.63;;
34236;SDS011;20501;45.956;13.632;2023-03-23T06:10:56;17.30;;;11.05;;
34236;SDS011;20501;45.956;13.632;2023-03-23T06:13:22;18.20;;;10.18;;
34236;SDS011;20501;45.956;13.632;2023-03-23T06:15:48;16.88;;;11.13;;
34236;SDS011;20501;45.956;13.632;2023-03-23T06:18:14;24.93;;;14.03;;
34236;SDS011;20501;45.956;13.632;2023-03-23T06:20:40;23.83;;;14.73;;
34236;SDS011;20501;45.956;13.632;2023-03-23T06:23:08;27.92;;;16.27;;
34236;SDS011;20501;45.956;13.632;2023-03-23T06:25:34;26.05;;;16.05;;
34236;SDS011;20501;45.956;13.632;2023-03-23T06:27:59;28.40;;;17.27;;
34236;SDS011;20501;45.956;13.632;2023-03-23T06:30:25;24.52;;;14.18;;
34236;SDS011;20501;45.956;13.632;2023-03-23T06:32:51;28.40;;;16.38;;
34236;SDS011;20501;45.956;13.632;2023-03-23T06:35:17;34.70;;;17.75;;
34236;SDS011;20501;45.956;13.632;2023-03-23T06:37:43;24.83;;;14.98;;
34236;SDS011;20501;45.956;13.632;2023-03-23T06:40:08;28.83;;;16.08;;
34236;SDS011;20501;45.956;13.632;2023-03-23T06:42:37;27.27;;;16.25;;
34236;SDS011;20501;45.956;13.632;2023-03-23T06:45:03;20.85;;;13.65;;
34236;SDS011;20501;45.956;13.632;2023-03-23T06:47:29;25.95;;;15.40;;
34236;SDS011;20501;45.956;13.632;2023-03-23T06:49:55;26.10;;;15.07;;
34236;SDS011;20501;45.956;13.632;2023-03-23T06:52:22;26.00;;;16.80;;
34236;SDS011;20501;45.956;13.632;2023-03-23T06:54:48;17.65;;;11.05;;
34236;SDS011;20501;45.956;13.632;2023-03-23T06:57:14;30.70;;;15.63;;
34236;SDS011;20501;45.956;13.632;2023-03-23T06:59:40;28.00;;;17.45;;
34236;SDS011;20501;45.956;13.632;2023-03-23T07:02:08;21.00;;;12.10;;
34236;SDS011;20501;45.956;13.632;2023-03-23T07:04:34;17.70;;;11.15;;
34236;SDS011;20501;45.956;13.632;2023-03-23T07:07:00;15.13;;;10.05;;
34236;SDS011;20501;45.956;13.632;2023-03-23T07:09:26;21.13;;;12.23;;
34236;SDS011;20501;45.956;13.632;2023-03-23T07:11:52;17.35;;;11.07;;
34236;SDS011;20501;45.956;13.632;2023-03-23T07:14:17;14.63;;;9.65;;
34236;SDS011;20501;45.956;13.632;2023-03-23T07:16:43;17.98;;;10.23;;
34236;SDS011;20501;45.956;13.632;2023-03-23T07:19:08;19.15;;;10.63;;
34236;SDS011;20501;45.956;13.632;2023-03-23T07:21:34;17.13;;;10.70;;
34236;SDS011;20501;45.956;13.632;2023-03-23T07:23:59;23.23;;;14.60;;
34236;SDS011;20501;45.956;13.632;2023-03-23T07:26:25;23.83;;;12.63;;
34236;SDS011;20501;45.956;13.632;2023-03-23T07:28:50;30.25;;;18.25;;
34236;SDS011;20501;45.956;13.632;2023-03-23T07:31:16;29.20;;;18.08;;
34236;SDS011;20501;45.956;13.632;2023-03-23T07:33:42;33.33;;;18.73;;
34236;SDS011;20501;45.956;13.632;2023-03-23T07:36:08;21.90;;;12.00;;
34236;SDS011;20501;45.956;13.632;2023-03-23T07:38:34;21.83;;;13.35;;
34236;SDS011;20501;45.956;13.632;2023-03-23T07:41:00;40.17;;;16.27;;
34236;SDS011;20501;45.956;13.632;2023-03-23T07:43:26;24.27;;;15.77;;
34236;SDS011;20501;45.956;13.632;2023-03-23T07:45:52;30.83;;;17.33;;
34236;SDS011;20501;45.956;13.632;2023-03-23T07:48:18;20.63;;;12.95;;
34236;SDS011;20501;45.956;13.632;2023-03-23T07:50:43;22.13;;;14.18;;
34236;SDS011;20501;45.956;13.632;2023-03-23T07:53:09;25.65;;;15.00;;
34236;SDS011;20501;45.956;13.632;2023-03-23T07:55:34;18.40;;;12.35;;
34236;SDS011;20501;45.956;13.632;2023-03-23T07:58:00;28.30;;;15.60;;
34236;SDS011;20501;45.956;13.632;2023-03-23T08:00:25;19.13;;;12.13;;
34236;SDS011;20501;45.956;13.632;2023-03-23T08:02:52;15.05;;;9.85;;
34236;SDS011;20501;45.956;13.632;2023-03-23T08:05:22;24.23;;;13.73;;
34236;SDS011;20501;45.956;13.632;2023-03-23T08:07:50;24.27;;;15.90;;
34236;SDS011;20501;45.956;13.632;2023-03-23T08:10:17;26.15;;;13.13;;
34236;SDS011;20501;45.956;13.632;2023-03-23T08:12:43;27.38;;;15.50;;
34236;SDS011;20501;45.956;13.632;2023-03-23T08:15:10;27.33;;;16.05;;
34236;SDS011;20501;45.956;13.632;2023-03-23T08:17:40;20.17;;;12.13;;
34236;SDS011;20501;45.956;13.632;2023-03-23T08:20:06;31.77;;;15.03;;
34236;SDS011;20501;45.956;13.632;2023-03-23T08:22:43;26.73;;;15.52;;
34236;SDS011;20501;45.956;13.632;2023-03-23T08:25:11;32.55;;;16.08;;
34236;SDS011;20501;45.956;13.632;2023-03-23T08:27:39;34.28;;;16.42;;
34236;SDS011;20501;45.956;13.632;2023-03-23T08:30:09;29.48;;;16.63;;
34236;SDS011;20501;45.956;13.632;2023-03-23T08:32:37;25.90;;;11.68;;
34236;SDS011;20501;45.956;13.632;2023-03-23T08:35:03;17.50;;;10.17;;
34236;SDS011;20501;45.956;13.632;2023-03-23T08:37:29;33.15;;;16.13;;
34236;SDS011;20501;45.956;13.632;2023-03-23T08:39:55;28.55;;;16.35;;
34236;SDS011;20501;45.956;13.632;2023-03-23T08:42:22;28.95;;;14.88;;
34236;SDS011;20501;45.956;13.632;2023-03-23T08:44:49;37.42;;;15.68;;
34236;SDS011;20501;45.956;13.632;2023-03-23T08:47:15;41.55;;;16.27;;
34236;SDS011;20501;45.956;13.632;2023-03-23T08:49:41;30.92;;;14.98;;
34236;SDS011;20501;45.956;13.632;2023-03-23T08:52:07;20.80;;;11.37;;
34236;SDS011;20501;45.956;13.632;2023-03-23T08:54:34;25.38;;;15.32;;
34236;SDS011;20501;45.956;13.632;2023-03-23T08:57:00;42.63;;;16.70;;
34236;SDS011;20501;45.956;13.632;2023-03-23T08:59:27;34.30;;;16.63;;
34236;SDS011;20501;45.956;13.632;2023-03-23T09:01:52;35.38;;;15.60;;
34236;SDS011;20501;45.956;13.632;2023-03-23T09:04:18;30.20;;;16.75;;
34236;SDS011;20501;45.956;13.632;2023-03-23T09:06:43;22.98;;;12.23;;
34236;SDS011;20501;45.956;13.632;2023-03-23T09:09:11;26.83;;;12.05;;
34236;SDS011;20501;45.956;13.632;2023-03-23T09:11:37;18.50;;;9.77;;
34236;SDS011;20501;45.956;13.632;2023-03-23T09:14:04;27.08;;;13.85;;
34236;SDS011;20501;45.956;13.632;2023-03-23T09:16:31;19.17;;;10.02;;
34236;SDS011;20501;45.956;13.632;2023-03-23T09:18:57;29.77;;;12.02;;
34236;SDS011;20501;45.956;13.632;2023-03-23T09:21:24;20.38;;;10.80;;
34236;SDS011;20501;45.956;13.632;2023-03-23T09:23:50;18.63;;;9.32;;
34236;SDS011;20501;45.956;13.632;2023-03-23T09:26:16;14.23;;;8.80;;
34236;SDS011;20501;45.956;13.632;2023-03-23T09:28:42;13.43;;;8.52;;
34236;SDS011;20501;45.956;13.632;2023-03-23T09:31:09;11.45;;;8.00;;
34236;SDS011;20501;45.956;13.632;2023-03-23T09:33:36;12.63;;;7.07;;
34236;SDS011;20501;45.956;13.632;2023-03-23T09:36:02;18.37;;;7.47;;
34236;SDS011;20501;45.956;13.632;2023-03-23T09:38:29;12.85;;;6.28;;
34236;SDS011;20501;45.956;13.632;2023-03-23T09:41:03;7.65;;;6.10;;
34236;SDS011;20501;45.956;13.632;2023-03-23T09:49:10;13.30;;;7.80;;
34236;SDS011;20501;45.956;13.632;2023-03-23T09:56:48;11.57;;;6.32;;
34236;SDS011;20501;45.956;13.632;2023-03-23T10:01:48;14.88;;;5.85;;
34236;SDS011;20501;45.956;13.632;2023-03-23T10:06:58;6.15;;;3.92;;
34236;SDS011;20501;45.956;13.632;2023-03-23T10:09:29;9.30;;;4.72;;
34236;SDS011;20501;45.956;13.632;2023-03-23T10:12:02;7.40;;;5.18;;
34236;SDS011;20501;45.956;13.632;2023-03-23T10:17:32;10.93;;;5.72;;
34236;SDS011;20501;45.956;13.632;2023-03-23T10:26:04;8.07;;;4.60;;
34236;SDS011;20501;45.956;13.632;2023-03-23T10:28:43;7.10;;;5.00;;
34236;SDS011;20501;45.956;13.632;2023-03-23T10:31:12;9.25;;;5.55;;
34236;SDS011;20501;45.956;13.632;2023-03-23T10:33:44;7.53;;;5.38;;
34236;SDS011;20501;45.956;13.632;2023-03-23T10:36:14;8.60;;;5.03;;
34236;SDS011;20501;45.956;13.632;2023-03-23T10:41:37;7.88;;;5.40;;
34236;SDS011;20501;45.956;13.632;2023-03-23T10:44:10;8.02;;;5.97;;
34236;SDS011;20501;45.956;13.632;2023-03-23T10:55:01;12.82;;;5.90;;
34236;SDS011;20501;45.956;13.632;2023-03-23T10:58:08;9.10;;;5.45;;
34236;SDS011;20501;45.956;13.632;2023-03-23T11:00:45;10.77;;;6.13;;
34236;SDS011;20501;45.956;13.632;2023-03-23T11:08:15;9.27;;;5.90;;
34236;SDS011;20501;45.956;13.632;2023-03-23T11:10:54;8.25;;;5.00;;
34236;SDS011;20501;45.956;13.632;2023-03-23T11:13:21;10.20;;;4.53;;
34236;SDS011;20501;45.956;13.632;2023-03-23T11:15:50;10.95;;;4.85;;
34236;SDS011;20501;45.956;13.632;2023-03-23T11:18:19;10.75;;;4.75;;
34236;SDS011;20501;45.956;13.632;2023-03-23T11:20:56;7.25;;;4.75;;
34236;SDS011;20501;45.956;13.632;2023-03-23T11:23:31;20.65;;;6.22;;
34236;SDS011;20501;45.956;13.632;2023-03-23T11:28:29;10.65;;;5.30;;
34236;SDS011;20501;45.956;13.632;2023-03-23T11:31:00;11.70;;;6.03;;
34236;SDS011;20501;45.956;13.632;2023-03-23T11:36:12;14.02;;;5.07;;
34236;SDS011;20501;45.956;13.632;2023-03-23T11:38:38;8.02;;;4.30;;
34236;SDS011;20501;45.956;13.632;2023-03-23T11:41:08;8.23;;;4.83;;
34236;SDS011;20501;45.956;13.632;2023-03-23T11:43:38;5.95;;;3.88;;
34236;SDS011;20501;45.956;13.632;2023-03-23T11:46:09;7.10;;;3.92;;
34236;SDS011;20501;45.956;13.632;2023-03-23T11:48:49;7.22;;;4.07;;
34236;SDS011;20501;45.956;13.632;2023-03-23T11:51:34;6.03;;;4.00;;
34236;SDS011;20501;45.956;13.632;2023-03-23T11:56:34;5.88;;;4.20;;
34236;SDS011;20501;45.956;13.632;2023-03-23T11:59:09;8.98;;;4.35;;
34236;SDS011;20501;45.956;13.632;2023-03-23T12:12:27;9.07;;;4.40;;
34236;SDS011;20501;45.956;13.632;2023-03-23T12:20:55;8.70;;;4.28;;
34236;SDS011;20501;45.956;13.632;2023-03-23T12:26:30;6.40;;;3.35;;
34236;SDS011;20501;45.956;13.632;2023-03-23T12:29:37;5.68;;;3.10;;
34236;SDS011;20501;45.956;13.632;2023-03-23T12:35:11;5.13;;;3.92;;
34236;SDS011;20501;45.956;13.632;2023-03-23T12:41:07;7.45;;;3.80;;
34236;SDS011;20501;45.956;13.632;2023-03-23T12:49:21;5.80;;;3.88;;
34236;SDS011;20501;45.956;13.632;2023-03-23T12:54:51;5.85;;;3.92;;
34236;SDS011;20501;45.956;13.632;2023-03-23T12:57:47;4.80;;;3.80;;
34236;SDS011;20501;45.956;13.632;2023-03-23T13:00:48;6.00;;;4.40;;
34236;SDS011;20501;45.956;13.632;2023-03-23T13:03:33;4.13;;;3.03;;
34236;SDS011;20501;45.956;13.632;2023-03-23T13:08:55;13.48;;;4.10;;
34236;SDS011;20501;45.956;13.632;2023-03-23T13:11:58;5.75;;;3.83;;
34236;SDS011;20501;45.956;13.632;2023-03-23T13:17:05;5.68;;;3.45;;
34236;SDS011;20501;45.956;13.632;2023-03-23T13:22:10;5.13;;;3.70;;
34236;SDS011;20501;45.956;13.632;2023-03-23T13:24:51;11.68;;;4.68;;
34236;SDS011;20501;45.956;13.632;2023-03-23T13:27:26;6.32;;;4.15;;
34236;SDS011;20501;45.956;13.632;2023-03-23T13:29:56;9.23;;;4.55;;
34236;SDS011;20501;45.956;13.632;2023-03-23T13:32:29;6.72;;;3.80;;
34236;SDS011;20501;45.956;13.632;2023-03-23T13:35:13;5.73;;;3.60;;
34236;SDS011;20501;45.956;13.632;2023-03-23T13:37:45;8.75;;;4.78;;
34236;SDS011;20501;45.956;13.632;2023-03-23T13:42:53;7.93;;;4.43;;
34236;SDS011;20501;45.956;13.632;2023-03-23T13:45:36;10.13;;;5.07;;
34236;SDS011;20501;45.956;13.632;2023-03-23T13:48:39;10.45;;;4.85;;
34236;SDS011;20501;45.956;13.632;2023-03-23T13:51:21;9.13;;;5.13;;
34236;SDS011;20501;45.956;13.632;2023-03-23T13:53:50;9.85;;;5.50;;
34236;SDS011;20501;45.956;13.632;2023-03-23T13:58:46;8.85;;;6.50;;
34236;SDS011;20501;45.956;13.632;2023-03-23T14:01:29;15.52;;;6.72;;
34236;SDS011;20501;45.956;13.632;2023-03-23T14:04:00;9.40;;;5.95;;
34236;SDS011;20501;45.956;13.632;2023-03-23T14:06:33;10.30;;;5.25;;
34236;SDS011;20501;45.956;13.632;2023-03-23T14:09:09;10.50;;;5.55;;
34236;SDS011;20501;45.956;13.632;2023-03-23T14:14:33;7.88;;;5.25;;
34236;SDS011;20501;45.956;13.632;2023-03-23T14:19:42;7.80;;;4.22;;
34236;SDS011;20501;45.956;13.632;2023-03-23T14:22:19;6.50;;;4.85;;
34236;SDS011;20501;45.956;13.632;2023-03-23T14:24:48;9.50;;;4.55;;
34236;SDS011;20501;45.956;13.632;2023-03-23T14:27:15;9.15;;;4.57;;
34236;SDS011;20501;45.956;13.632;2023-03-23T14:29:45;9.70;;;4.88;;
34236;SDS011;20501;45.956;13.632;2023-03-23T14:32:15;5.97;;;3.97;;
34236;SDS011;20501;45.956;13.632;2023-03-23T14:34:43;6.43;;;4.22;;
34236;SDS011;20501;45.956;13.632;2023-03-23T14:37:12;6.32;;;4.53;;
34236;SDS011;20501;45.956;13.632;2023-03-23T14:39:40;7.03;;;4.32;;
34236;SDS011;20501;45.956;13.632;2023-03-23T14:42:11;9.00;;;4.47;;
34236;SDS011;20501;45.956;13.632;2023-03-23T14:44:42;7.45;;;3.75;;
34236;SDS011;20501;45.956;13.632;2023-03-23T14:47:13;6.10;;;3.65;;
34236;SDS011;20501;45.956;13.632;2023-03-23T14:49:53;9.82;;;4.60;;
34236;SDS011;20501;45.956;13.632;2023-03-23T14:52:21;7.03;;;4.53;;
34236;SDS011;20501;45.956;13.632;2023-03-23T14:54:49;4.75;;;3.63;;
34236;SDS011;20501;45.956;13.632;2023-03-23T14:57:20;9.30;;;3.70;;
34236;SDS011;20501;45.956;13.632;2023-03-23T14:59:53;7.15;;;3.50;;
34236;SDS011;20501;45.956;13.632;2023-03-23T15:02:32;5.57;;;3.55;;
34236;SDS011;20501;45.956;13.632;2023-03-23T15:05:06;5.65;;;3.60;;
34236;SDS011;20501;45.956;13.632;2023-03-23T15:07:37;4.80;;;3.28;;
34236;SDS011;20501;45.956;13.632;2023-03-23T15:10:07;5.28;;;3.38;;
34236;SDS011;20501;45.956;13.632;2023-03-23T15:12:37;5.97;;;3.55;;
34236;SDS011;20501;45.956;13.632;2023-03-23T15:15:04;4.45;;;3.03;;
34236;SDS011;20501;45.956;13.632;2023-03-23T15:17:36;4.55;;;3.17;;
34236;SDS011;20501;45.956;13.632;2023-03-23T15:20:45;4.10;;;3.10;;
34236;SDS011;20501;45.956;13.632;2023-03-23T15:23:14;15.55;;;4.32;;
34236;SDS011;20501;45.956;13.632;2023-03-23T15:25:47;15.13;;;4.22;;
34236;SDS011;20501;45.956;13.632;2023-03-23T15:28:19;17.48;;;4.20;;
34236;SDS011;20501;45.956;13.632;2023-03-23T15:30:53;8.40;;;4.00;;
34236;SDS011;20501;45.956;13.632;2023-03-23T15:33:22;14.52;;;4.25;;
34236;SDS011;20501;45.956;13.632;2023-03-23T15:35:53;10.00;;;3.80;;
34236;SDS011;20501;45.956;13.632;2023-03-23T15:38:24;37.45;;;5.07;;
34236;SDS011;20501;45.956;13.632;2023-03-23T15:40:58;6.43;;;3.58;;
34236;SDS011;20501;45.956;13.632;2023-03-23T15:43:25;15.05;;;4.57;;
34236;SDS011;20501;45.956;13.632;2023-03-23T15:48:28;6.90;;;3.95;;
34236;SDS011;20501;45.956;13.632;2023-03-23T15:53:34;15.65;;;4.65;;
34236;SDS011;20501;45.956;13.632;2023-03-23T15:56:03;17.75;;;4.70;;
34236;SDS011;20501;45.956;13.632;2023-03-23T15:58:30;19.60;;;4.68;;
34236;SDS011;20501;45.956;13.632;2023-03-23T16:00:57;10.05;;;5.07;;
34236;SDS011;20501;45.956;13.632;2023-03-23T16:03:28;5.60;;;3.85;;
34236;SDS011;20501;45.956;13.632;2023-03-23T16:05:58;10.25;;;4.88;;
34236;SDS011;20501;45.956;13.632;2023-03-23T16:08:24;7.35;;;4.10;;
34236;SDS011;20501;45.956;13.632;2023-03-23T16:10:51;4.20;;;3.35;;
34236;SDS011;20501;45.956;13.632;2023-03-23T16:13:16;7.40;;;3.50;;
34236;SDS011;20501;45.956;13.632;2023-03-23T16:15:42;14.68;;;4.30;;
34236;SDS011;20501;45.956;13.632;2023-03-23T16:18:18;5.03;;;3.70;;
34236;SDS011;20501;45.956;13.632;2023-03-23T16:20:46;5.40;;;3.92;;
34236;SDS011;20501;45.956;13.632;2023-03-23T16:23:13;4.78;;;3.42;;
34236;SDS011;20501;45.956;13.632;2023-03-23T16:25:39;16.30;;;4.25;;
34236;SDS011;20501;45.956;13.632;2023-03-23T16:28:04;6.78;;;3.35;;
34236;SDS011;20501;45.956;13.632;2023-03-23T16:30:32;7.65;;;4.25;;
34236;SDS011;20501;45.956;13.632;2023-03-23T16:32:59;4.80;;;3.90;;
34236;SDS011;20501;45.956;13.632;2023-03-23T16:35:25;10.50;;;4.35;;
34236;SDS011;20501;45.956;13.632;2023-03-23T16:37:52;9.43;;;4.45;;
34236;SDS011;20501;45.956;13.632;2023-03-23T16:40:20;7.90;;;3.42;;
34236;SDS011;20501;45.956;13.632;2023-03-23T16:42:46;6.47;;;3.53;;
34236;SDS011;20501;45.956;13.632;2023-03-23T16:45:13;5.30;;;3.53;;
34236;SDS011;20501;45.956;13.632;2023-03-23T16:47:39;4.95;;;3.75;;
34236;SDS011;20501;45.956;13.632;2023-03-23T16:50:06;6.83;;;3.43;;